sensor_id;sensor_type;location;lat;lon;timestamp;temperature;humidity
74484;SHT31;62942;52.462;10.846;2022-08-21T00:00:48;16.8;73.3
74484;SHT31;62942;52.462;10.846;2022-08-21T00:01:58;16.8;73.6
74484;SHT31;62942;52.462;10.846;2022-08-21T00:02:59;16.7;73.9
74484;SHT31;62942;52.462;10.846;2022-08-21T00:04:08;16.6;74.1
74484;SHT31;62942;52.462;10.846;2022-08-21T00:05:08;16.6;74.2
74484;SHT31;62942;52.462;10.846;2022-08-21T00:06:18;16.6;74.6
74484;SHT31;62942;52.462;10.846;2022-08-21T00:07:18;16.5;74.8
74484;SHT31;62942;52.462;10.846;2022-08-21T00:08:28;16.5;74.9
74484;SHT31;62942;52.462;10.846;2022-08-21T00:09:38;16.4;75.1
74484;SHT31;62942;52.462;10.846;2022-08-21T00:10:48;16.3;75.2
74484;SHT31;62942;52.462;10.846;2022-08-21T00:11:58;16.3;75.4
74484;SHT31;62942;52.462;10.846;2022-08-21T00:13:08;16.3;75.5
74484;SHT31;62942;52.462;10.846;2022-08-21T00:14:08;16.3;75.7
74484;SHT31;62942;52.462;10.846;2022-08-21T00:15:19;16.2;76.1
74484;SHT31;62942;52.462;10.846;2022-08-21T00:16:18;16.2;76.2
74484;SHT31;62942;52.462;10.846;2022-08-21T00:17:28;16.2;76.4
74484;SHT31;62942;52.462;10.846;2022-08-21T00:18:28;16.1;76.6
74484;SHT31;62942;52.462;10.846;2022-08-21T00:19:38;16.1;76.9
74484;SHT31;62942;52.462;10.846;2022-08-21T00:20:38;16.1;77.1
74484;SHT31;62942;52.462;10.846;2022-08-21T00:21:48;16;77.2
74484;SHT31;62942;52.462;10.846;2022-08-21T00:22:48;16;77.3
74484;SHT31;62942;52.462;10.846;2022-08-21T00:23:58;16;77.3
74484;SHT31;62942;52.462;10.846;2022-08-21T00:24:58;15.9;77.4
74484;SHT31;62942;52.462;10.846;2022-08-21T00:26:08;15.8;77.5
74484;SHT31;62942;52.462;10.846;2022-08-21T00:27:08;15.8;77.5
74484;SHT31;62942;52.462;10.846;2022-08-21T00:28:18;15.8;77.6
74484;SHT31;62942;52.462;10.846;2022-08-21T00:29:18;15.7;77.7
74484;SHT31;62942;52.462;10.846;2022-08-21T00:30:28;15.7;77.8
74484;SHT31;62942;52.462;10.846;2022-08-21T00:31:28;15.7;78
74484;SHT31;62942;52.462;10.846;2022-08-21T00:32:38;15.6;77.9
74484;SHT31;62942;52.462;10.846;2022-08-21T00:33:48;15.6;77.9
74484;SHT31;62942;52.462;10.846;2022-08-21T00:34:48;15.6;78.1
74484;SHT31;62942;52.462;10.846;2022-08-21T00:35:58;15.6;78.2
74484;SHT31;62942;52.462;10.846;2022-08-21T00:37:08;15.6;78.3
74484;SHT31;62942;52.462;10.846;2022-08-21T00:38:08;15.6;78.4
74484;SHT31;62942;52.462;10.846;2022-08-21T00:39:18;15.6;78.3
74484;SHT31;62942;52.462;10.846;2022-08-21T00:40:28;15.6;78.3
74484;SHT31;62942;52.462;10.846;2022-08-21T00:41:38;15.6;78.3
74484;SHT31;62942;52.462;10.846;2022-08-21T00:42:38;15.6;78.3
74484;SHT31;62942;52.462;10.846;2022-08-21T00:43:38;15.5;78.4
74484;SHT31;62942;52.462;10.846;2022-08-21T00:44:48;15.5;78.6
74484;SHT31;62942;52.462;10.846;2022-08-21T00:45:48;15.5;78.7
74484;SHT31;62942;52.462;10.846;2022-08-21T00:46:58;15.4;78.7
74484;SHT31;62942;52.462;10.846;2022-08-21T00:48:09;15.4;78.9
74484;SHT31;62942;52.462;10.846;2022-08-21T00:49:18;15.4;79
74484;SHT31;62942;52.462;10.846;2022-08-21T00:50:18;15.4;79.1
74484;SHT31;62942;52.462;10.846;2022-08-21T00:51:18;15.4;79.1
74484;SHT31;62942;52.462;10.846;2022-08-21T00:52:28;15.3;79.1
74484;SHT31;62942;52.462;10.846;2022-08-21T00:53:39;15.3;79.1
74484;SHT31;62942;52.462;10.846;2022-08-21T00:54:48;15.3;79.1
74484;SHT31;62942;52.462;10.846;2022-08-21T00:55:48;15.3;79.4
74484;SHT31;62942;52.462;10.846;2022-08-21T00:56:49;15.2;79.7
74484;SHT31;62942;52.462;10.846;2022-08-21T00:57:58;15.2;79.9
74484;SHT31;62942;52.462;10.846;2022-08-21T00:59:08;15.2;80.1
74484;SHT31;62942;52.462;10.846;2022-08-21T01:00:20;15.2;80.3
74484;SHT31;62942;52.462;10.846;2022-08-21T01:01:18;15.1;80.4
74484;SHT31;62942;52.462;10.846;2022-08-21T01:02:18;15.1;80.5
74484;SHT31;62942;52.462;10.846;2022-08-21T01:03:28;15.1;80.7
74484;SHT31;62942;52.462;10.846;2022-08-21T01:04:38;15.1;80.9
74484;SHT31;62942;52.462;10.846;2022-08-21T01:05:47;15.1;81.1
74484;SHT31;62942;52.462;10.846;2022-08-21T01:06:47;15.1;81.2
74484;SHT31;62942;52.462;10.846;2022-08-21T01:07:48;15.1;81.2
74484;SHT31;62942;52.462;10.846;2022-08-21T01:08:57;15;81.2
74484;SHT31;62942;52.462;10.846;2022-08-21T01:10:08;15;81.3
74484;SHT31;62942;52.462;10.846;2022-08-21T01:11:17;14.9;81.5
74484;SHT31;62942;52.462;10.846;2022-08-21T01:12:28;14.9;81.5
74484;SHT31;62942;52.462;10.846;2022-08-21T01:13:37;14.8;81.4
74484;SHT31;62942;52.462;10.846;2022-08-21T01:14:47;14.8;81.5
74484;SHT31;62942;52.462;10.846;2022-08-21T01:15:48;14.7;81.6
74484;SHT31;62942;52.462;10.846;2022-08-21T01:16:48;14.7;81.8
74484;SHT31;62942;52.462;10.846;2022-08-21T01:17:57;14.6;82
74484;SHT31;62942;52.462;10.846;2022-08-21T01:18:58;14.6;82.3
74484;SHT31;62942;52.462;10.846;2022-08-21T01:20:09;14.6;82.7
74484;SHT31;62942;52.462;10.846;2022-08-21T01:21:08;14.6;83
74484;SHT31;62942;52.462;10.846;2022-08-21T01:22:18;14.5;82.9
74484;SHT31;62942;52.462;10.846;2022-08-21T01:23:17;14.5;82.6
74484;SHT31;62942;52.462;10.846;2022-08-21T01:24:17;14.4;82.6
74484;SHT31;62942;52.462;10.846;2022-08-21T01:25:27;14.3;82.7
74484;SHT31;62942;52.462;10.846;2022-08-21T01:26:28;14.3;82.8
74484;SHT31;62942;52.462;10.846;2022-08-21T01:27:28;14.3;83.2
74484;SHT31;62942;52.462;10.846;2022-08-21T01:28:38;14.3;83.7
74484;SHT31;62942;52.462;10.846;2022-08-21T01:29:38;14.3;83.8
74484;SHT31;62942;52.462;10.846;2022-08-21T01:30:48;14.3;83.9
74484;SHT31;62942;52.462;10.846;2022-08-21T01:31:47;14.3;84
74484;SHT31;62942;52.462;10.846;2022-08-21T01:32:48;14.3;83.9
74484;SHT31;62942;52.462;10.846;2022-08-21T01:33:58;14.3;83.9
74484;SHT31;62942;52.462;10.846;2022-08-21T01:34:57;14.3;83.8
74484;SHT31;62942;52.462;10.846;2022-08-21T01:35:57;14.2;83.8
74484;SHT31;62942;52.462;10.846;2022-08-21T01:37:08;14.2;83.7
74484;SHT31;62942;52.462;10.846;2022-08-21T01:38:17;14.2;83.7
74484;SHT31;62942;52.462;10.846;2022-08-21T01:39:17;14.2;83.7
74484;SHT31;62942;52.462;10.846;2022-08-21T01:40:17;14.1;83.6
74484;SHT31;62942;52.462;10.846;2022-08-21T01:41:17;14.1;83.6
74484;SHT31;62942;52.462;10.846;2022-08-21T01:42:28;14;83.5
74484;SHT31;62942;52.462;10.846;2022-08-21T01:43:37;14;83.6
74484;SHT31;62942;52.462;10.846;2022-08-21T01:44:47;13.9;83.5
74484;SHT31;62942;52.462;10.846;2022-08-21T01:45:47;13.9;83.5
74484;SHT31;62942;52.462;10.846;2022-08-21T01:46:58;13.8;83.7
74484;SHT31;62942;52.462;10.846;2022-08-21T01:47:57;13.8;84.1
74484;SHT31;62942;52.462;10.846;2022-08-21T01:49:07;13.7;84.4
74484;SHT31;62942;52.462;10.846;2022-08-21T01:50:18;13.7;84.6
74484;SHT31;62942;52.462;10.846;2022-08-21T01:51:17;13.7;84.7
74484;SHT31;62942;52.462;10.846;2022-08-21T01:52:28;13.7;84.8
74484;SHT31;62942;52.462;10.846;2022-08-21T01:53:27;13.7;84.8
74484;SHT31;62942;52.462;10.846;2022-08-21T01:54:38;13.6;84.8
74484;SHT31;62942;52.462;10.846;2022-08-21T01:55:47;13.6;84.7
74484;SHT31;62942;52.462;10.846;2022-08-21T01:56:58;13.6;84.7
74484;SHT31;62942;52.462;10.846;2022-08-21T01:57:58;13.6;84.6
74484;SHT31;62942;52.462;10.846;2022-08-21T01:59:07;13.6;84.6
74484;SHT31;62942;52.462;10.846;2022-08-21T02:00:09;13.6;84.6
74484;SHT31;62942;52.462;10.846;2022-08-21T02:01:17;13.5;84.6
74484;SHT31;62942;52.462;10.846;2022-08-21T02:02:17;13.5;84.6
74484;SHT31;62942;52.462;10.846;2022-08-21T02:03:17;13.5;84.6
74484;SHT31;62942;52.462;10.846;2022-08-21T02:04:17;13.5;84.6
74484;SHT31;62942;52.462;10.846;2022-08-21T02:05:27;13.4;84.8
74484;SHT31;62942;52.462;10.846;2022-08-21T02:06:38;13.4;84.9
74484;SHT31;62942;52.462;10.846;2022-08-21T02:07:39;13.4;84.9
74484;SHT31;62942;52.462;10.846;2022-08-21T02:08:47;13.4;84.9
74484;SHT31;62942;52.462;10.846;2022-08-21T02:09:47;13.4;84.9
74484;SHT31;62942;52.462;10.846;2022-08-21T02:10:57;13.3;84.8
74484;SHT31;62942;52.462;10.846;2022-08-21T02:12:07;13.3;84.9
74484;SHT31;62942;52.462;10.846;2022-08-21T02:13:07;13.3;85
74484;SHT31;62942;52.462;10.846;2022-08-21T02:14:18;13.2;85.2
74484;SHT31;62942;52.462;10.846;2022-08-21T02:15:28;13.2;85.4
74484;SHT31;62942;52.462;10.846;2022-08-21T02:16:27;13.2;85.5
74484;SHT31;62942;52.462;10.846;2022-08-21T02:17:27;13.2;85.7
74484;SHT31;62942;52.462;10.846;2022-08-21T02:18:27;13.2;85.7
74484;SHT31;62942;52.462;10.846;2022-08-21T02:19:27;13.1;85.7
74484;SHT31;62942;52.462;10.846;2022-08-21T02:20:38;13.1;85.6
74484;SHT31;62942;52.462;10.846;2022-08-21T02:21:47;13;85.5
74484;SHT31;62942;52.462;10.846;2022-08-21T02:22:58;13;85.7
74484;SHT31;62942;52.462;10.846;2022-08-21T02:24:07;13;85.9
74484;SHT31;62942;52.462;10.846;2022-08-21T02:25:07;13;86
74484;SHT31;62942;52.462;10.846;2022-08-21T02:26:17;13;85.9
74484;SHT31;62942;52.462;10.846;2022-08-21T02:27:27;12.9;86
74484;SHT31;62942;52.462;10.846;2022-08-21T02:28:27;12.9;86.2
74484;SHT31;62942;52.462;10.846;2022-08-21T02:29:37;12.9;86.4
74484;SHT31;62942;52.462;10.846;2022-08-21T02:30:48;12.8;86.5
74484;SHT31;62942;52.462;10.846;2022-08-21T02:31:47;12.8;86.6
74484;SHT31;62942;52.462;10.846;2022-08-21T02:32:47;12.8;86.7
74484;SHT31;62942;52.462;10.846;2022-08-21T02:33:47;12.8;86.7
74484;SHT31;62942;52.462;10.846;2022-08-21T02:34:57;12.8;86.9
74484;SHT31;62942;52.462;10.846;2022-08-21T02:36:08;12.8;87
74484;SHT31;62942;52.462;10.846;2022-08-21T02:37:17;12.7;87.1
74484;SHT31;62942;52.462;10.846;2022-08-21T02:38:18;12.7;87.2
74484;SHT31;62942;52.462;10.846;2022-08-21T02:39:27;12.8;87.2
74484;SHT31;62942;52.462;10.846;2022-08-21T02:40:38;12.7;87.2
74484;SHT31;62942;52.462;10.846;2022-08-21T02:41:47;12.7;87.1
74484;SHT31;62942;52.462;10.846;2022-08-21T02:42:58;12.7;87
74484;SHT31;62942;52.462;10.846;2022-08-21T02:44:07;12.7;87.1
74484;SHT31;62942;52.462;10.846;2022-08-21T02:45:18;12.6;87.1
74484;SHT31;62942;52.462;10.846;2022-08-21T02:46:18;12.7;87.2
74484;SHT31;62942;52.462;10.846;2022-08-21T02:47:27;12.7;87.2
74484;SHT31;62942;52.462;10.846;2022-08-21T02:48:38;12.7;87.3
74484;SHT31;62942;52.462;10.846;2022-08-21T02:49:37;12.7;87.4
74484;SHT31;62942;52.462;10.846;2022-08-21T02:50:39;12.7;87.4
74484;SHT31;62942;52.462;10.846;2022-08-21T02:51:47;12.7;87.3
74484;SHT31;62942;52.462;10.846;2022-08-21T02:52:47;12.7;87.3
74484;SHT31;62942;52.462;10.846;2022-08-21T02:53:57;12.7;87.3
74484;SHT31;62942;52.462;10.846;2022-08-21T02:54:57;12.6;87.4
74484;SHT31;62942;52.462;10.846;2022-08-21T02:56:09;12.6;87.3
74484;SHT31;62942;52.462;10.846;2022-08-21T02:57:17;12.6;87.2
74484;SHT31;62942;52.462;10.846;2022-08-21T02:58:28;12.6;87.2
74484;SHT31;62942;52.462;10.846;2022-08-21T02:59:37;12.6;87.3
74484;SHT31;62942;52.462;10.846;2022-08-21T03:00:47;12.5;87.4
74484;SHT31;62942;52.462;10.846;2022-08-21T03:01:57;12.5;87.6
74484;SHT31;62942;52.462;10.846;2022-08-21T03:02:58;12.5;87.6
74484;SHT31;62942;52.462;10.846;2022-08-21T03:03:57;12.5;87.7
74484;SHT31;62942;52.462;10.846;2022-08-21T03:04:57;12.5;87.6
74484;SHT31;62942;52.462;10.846;2022-08-21T03:06:08;12.5;87.6
74484;SHT31;62942;52.462;10.846;2022-08-21T03:07:17;12.5;87.7
74484;SHT31;62942;52.462;10.846;2022-08-21T03:08:27;12.4;87.9
74484;SHT31;62942;52.462;10.846;2022-08-21T03:09:27;12.4;88.1
74484;SHT31;62942;52.462;10.846;2022-08-21T03:10:38;12.4;88.1
74484;SHT31;62942;52.462;10.846;2022-08-21T03:11:37;12.4;87.9
74484;SHT31;62942;52.462;10.846;2022-08-21T03:12:37;12.4;87.8
74484;SHT31;62942;52.462;10.846;2022-08-21T03:13:47;12.4;88.1
74484;SHT31;62942;52.462;10.846;2022-08-21T03:14:57;12.3;88.2
74484;SHT31;62942;52.462;10.846;2022-08-21T03:15:58;12.3;88.3
74484;SHT31;62942;52.462;10.846;2022-08-21T03:17:07;12.3;88.4
74484;SHT31;62942;52.462;10.846;2022-08-21T03:18:17;12.3;88.4
74484;SHT31;62942;52.462;10.846;2022-08-21T03:19:27;12.2;88.4
74484;SHT31;62942;52.462;10.846;2022-08-21T03:20:28;12.3;88.6
74484;SHT31;62942;52.462;10.846;2022-08-21T03:21:27;12.3;88.8
74484;SHT31;62942;52.462;10.846;2022-08-21T03:22:37;12.3;89.2
74484;SHT31;62942;52.462;10.846;2022-08-21T03:23:47;12.3;89.5
74484;SHT31;62942;52.462;10.846;2022-08-21T03:24:57;12.4;89.6
74484;SHT31;62942;52.462;10.846;2022-08-21T03:25:58;12.4;89.6
74484;SHT31;62942;52.462;10.846;2022-08-21T03:27:07;12.5;89.5
74484;SHT31;62942;52.462;10.846;2022-08-21T03:28:18;12.4;89.3
74484;SHT31;62942;52.462;10.846;2022-08-21T03:29:27;12.5;89
74484;SHT31;62942;52.462;10.846;2022-08-21T03:30:27;12.4;88.7
74484;SHT31;62942;52.462;10.846;2022-08-21T03:31:37;12.4;88.5
74484;SHT31;62942;52.462;10.846;2022-08-21T03:32:37;12.4;88.5
74484;SHT31;62942;52.462;10.846;2022-08-21T03:33:47;12.3;88.7
74484;SHT31;62942;52.462;10.846;2022-08-21T03:34:47;12.3;88.9
74484;SHT31;62942;52.462;10.846;2022-08-21T03:35:58;12.3;89.1
74484;SHT31;62942;52.462;10.846;2022-08-21T03:37:07;12.3;89.2
74484;SHT31;62942;52.462;10.846;2022-08-21T03:38:07;12.3;89.2
74484;SHT31;62942;52.462;10.846;2022-08-21T03:39:17;12.3;89.1
74484;SHT31;62942;52.462;10.846;2022-08-21T03:40:18;12.3;89
74484;SHT31;62942;52.462;10.846;2022-08-21T03:41:27;12.2;89
74484;SHT31;62942;52.462;10.846;2022-08-21T03:42:37;12.2;89
74484;SHT31;62942;52.462;10.846;2022-08-21T03:43:47;12.1;89.2
74484;SHT31;62942;52.462;10.846;2022-08-21T03:44:57;12.1;89.3
74484;SHT31;62942;52.462;10.846;2022-08-21T03:46:07;12.1;89.3
74484;SHT31;62942;52.462;10.846;2022-08-21T03:47:10;12;89.2
74484;SHT31;62942;52.462;10.846;2022-08-21T03:48:17;12;89.2
74484;SHT31;62942;52.462;10.846;2022-08-21T03:49:27;12;89.3
74484;SHT31;62942;52.462;10.846;2022-08-21T03:50:38;12;89.5
74484;SHT31;62942;52.462;10.846;2022-08-21T03:51:47;11.9;89.4
74484;SHT31;62942;52.462;10.846;2022-08-21T03:52:47;11.9;89.3
74484;SHT31;62942;52.462;10.846;2022-08-21T03:53:57;11.9;89.3
74484;SHT31;62942;52.462;10.846;2022-08-21T03:55:07;11.8;89.3
74484;SHT31;62942;52.462;10.846;2022-08-21T03:56:07;11.8;89.6
74484;SHT31;62942;52.462;10.846;2022-08-21T03:57:17;11.9;89.9
74484;SHT31;62942;52.462;10.846;2022-08-21T03:58:27;11.9;90.1
74484;SHT31;62942;52.462;10.846;2022-08-21T03:59:27;11.8;90.2
74484;SHT31;62942;52.462;10.846;2022-08-21T04:00:27;11.8;90.2
74484;SHT31;62942;52.462;10.846;2022-08-21T04:01:37;11.8;90.2
74484;SHT31;62942;52.462;10.846;2022-08-21T04:02:47;11.8;90.1
74484;SHT31;62942;52.462;10.846;2022-08-21T04:03:57;11.8;90.2
74484;SHT31;62942;52.462;10.846;2022-08-21T04:05:07;11.8;90.3
74484;SHT31;62942;52.462;10.846;2022-08-21T04:06:17;11.8;90.3
74484;SHT31;62942;52.462;10.846;2022-08-21T04:07:27;11.8;90.2
74484;SHT31;62942;52.462;10.846;2022-08-21T04:08:37;11.8;90
74484;SHT31;62942;52.462;10.846;2022-08-21T04:09:47;11.8;89.9
74484;SHT31;62942;52.462;10.846;2022-08-21T04:10:48;11.8;89.9
74484;SHT31;62942;52.462;10.846;2022-08-21T04:11:57;11.7;89.8
74484;SHT31;62942;52.462;10.846;2022-08-21T04:12:57;11.7;89.7
74484;SHT31;62942;52.462;10.846;2022-08-21T04:14:07;11.7;89.6
74484;SHT31;62942;52.462;10.846;2022-08-21T04:15:17;11.6;89.5
74484;SHT31;62942;52.462;10.846;2022-08-21T04:16:27;11.6;89.5
74484;SHT31;62942;52.462;10.846;2022-08-21T04:17:27;11.5;89.5
74484;SHT31;62942;52.462;10.846;2022-08-21T04:18:37;11.5;89.6
74484;SHT31;62942;52.462;10.846;2022-08-21T04:19:37;11.5;89.6
74484;SHT31;62942;52.462;10.846;2022-08-21T04:20:48;11.5;89.8
74484;SHT31;62942;52.462;10.846;2022-08-21T04:21:57;11.4;89.8
74484;SHT31;62942;52.462;10.846;2022-08-21T04:23:07;11.4;90.1
74484;SHT31;62942;52.462;10.846;2022-08-21T04:24:17;11.4;90.3
74484;SHT31;62942;52.462;10.846;2022-08-21T04:25:27;11.5;90.6
74484;SHT31;62942;52.462;10.846;2022-08-21T04:26:37;11.5;90.8
74484;SHT31;62942;52.462;10.846;2022-08-21T04:27:47;11.5;91
74484;SHT31;62942;52.462;10.846;2022-08-21T04:28:57;11.5;91.1
74484;SHT31;62942;52.462;10.846;2022-08-21T04:30:08;11.5;91
74484;SHT31;62942;52.462;10.846;2022-08-21T04:31:07;11.6;91
74484;SHT31;62942;52.462;10.846;2022-08-21T04:32:20;11.6;91
74484;SHT31;62942;52.462;10.846;2022-08-21T04:33:27;11.6;90.8
74484;SHT31;62942;52.462;10.846;2022-08-21T04:34:27;11.6;90.9
74484;SHT31;62942;52.462;10.846;2022-08-21T04:35:37;11.6;90.8
74484;SHT31;62942;52.462;10.846;2022-08-21T04:36:37;11.6;90.8
74484;SHT31;62942;52.462;10.846;2022-08-21T04:37:47;11.6;90.9
74484;SHT31;62942;52.462;10.846;2022-08-21T04:38:57;11.6;91
74484;SHT31;62942;52.462;10.846;2022-08-21T04:40:08;11.6;91
74484;SHT31;62942;52.462;10.846;2022-08-21T04:41:07;11.6;91.1
74484;SHT31;62942;52.462;10.846;2022-08-21T04:42:17;11.6;91.2
74484;SHT31;62942;52.462;10.846;2022-08-21T04:43:17;11.7;91.2
74484;SHT31;62942;52.462;10.846;2022-08-21T04:44:27;11.7;91.3
74484;SHT31;62942;52.462;10.846;2022-08-21T04:45:38;11.7;91.3
74484;SHT31;62942;52.462;10.846;2022-08-21T04:46:47;11.7;91.3
74484;SHT31;62942;52.462;10.846;2022-08-21T04:47:58;11.7;91.3
74484;SHT31;62942;52.462;10.846;2022-08-21T04:48:57;11.8;91.2
74484;SHT31;62942;52.462;10.846;2022-08-21T04:50:07;11.8;91.1
74484;SHT31;62942;52.462;10.846;2022-08-21T04:51:09;11.8;91
74484;SHT31;62942;52.462;10.846;2022-08-21T04:52:18;11.8;90.9
74484;SHT31;62942;52.462;10.846;2022-08-21T04:53:18;11.8;90.9
74484;SHT31;62942;52.462;10.846;2022-08-21T04:54:27;11.8;90.8
74484;SHT31;62942;52.462;10.846;2022-08-21T04:55:37;11.8;90.7
74484;SHT31;62942;52.462;10.846;2022-08-21T04:56:48;11.8;90.6
74484;SHT31;62942;52.462;10.846;2022-08-21T04:57:47;11.9;90.5
74484;SHT31;62942;52.462;10.846;2022-08-21T04:58:47;11.9;90.5
74484;SHT31;62942;52.462;10.846;2022-08-21T04:59:48;11.9;90.5
74484;SHT31;62942;52.462;10.846;2022-08-21T05:00:47;12;90.4
74484;SHT31;62942;52.462;10.846;2022-08-21T05:01:47;12;90.4
74484;SHT31;62942;52.462;10.846;2022-08-21T05:02:57;12;90.3
74484;SHT31;62942;52.462;10.846;2022-08-21T05:03:58;12.1;90.2
74484;SHT31;62942;52.462;10.846;2022-08-21T05:05:07;12.1;90.2
74484;SHT31;62942;52.462;10.846;2022-08-21T05:06:17;12.1;90.2
74484;SHT31;62942;52.462;10.846;2022-08-21T05:07:19;12.2;90.2
74484;SHT31;62942;52.462;10.846;2022-08-21T05:08:18;12.2;90.1
74484;SHT31;62942;52.462;10.846;2022-08-21T05:09:27;12.2;90
74484;SHT31;62942;52.462;10.846;2022-08-21T05:10:37;12.3;90
74484;SHT31;62942;52.462;10.846;2022-08-21T05:11:47;12.3;89.9
74484;SHT31;62942;52.462;10.846;2022-08-21T05:12:47;12.4;89.9
74484;SHT31;62942;52.462;10.846;2022-08-21T05:13:57;12.4;89.8
74484;SHT31;62942;52.462;10.846;2022-08-21T05:15:07;12.4;89.7
74484;SHT31;62942;52.462;10.846;2022-08-21T05:16:07;12.5;89.7
74484;SHT31;62942;52.462;10.846;2022-08-21T05:17:17;12.5;89.6
74484;SHT31;62942;52.462;10.846;2022-08-21T05:18:27;12.6;89.5
74484;SHT31;62942;52.462;10.846;2022-08-21T05:19:37;12.6;89.4
74484;SHT31;62942;52.462;10.846;2022-08-21T05:20:37;12.7;89.3
74484;SHT31;62942;52.462;10.846;2022-08-21T05:21:47;12.8;89.1
74484;SHT31;62942;52.462;10.846;2022-08-21T05:22:57;12.8;89
74484;SHT31;62942;52.462;10.846;2022-08-21T05:24:07;12.9;88.8
74484;SHT31;62942;52.462;10.846;2022-08-21T05:25:17;13;88.6
74484;SHT31;62942;52.462;10.846;2022-08-21T05:26:27;13.1;88.4
74484;SHT31;62942;52.462;10.846;2022-08-21T05:27:37;13.1;88.2
74484;SHT31;62942;52.462;10.846;2022-08-21T05:28:47;13.2;88
74484;SHT31;62942;52.462;10.846;2022-08-21T05:29:57;13.3;87.7
74484;SHT31;62942;52.462;10.846;2022-08-21T05:31:07;13.4;87.5
74484;SHT31;62942;52.462;10.846;2022-08-21T05:32:08;13.5;87.4
74484;SHT31;62942;52.462;10.846;2022-08-21T05:33:07;13.6;87.2
74484;SHT31;62942;52.462;10.846;2022-08-21T05:34:18;13.7;87.2
74484;SHT31;62942;52.462;10.846;2022-08-21T05:35:27;13.8;87
74484;SHT31;62942;52.462;10.846;2022-08-21T05:36:27;13.9;86.9
74484;SHT31;62942;52.462;10.846;2022-08-21T05:37:37;14;86.7
74484;SHT31;62942;52.462;10.846;2022-08-21T05:38:47;14.1;86.4
74484;SHT31;62942;52.462;10.846;2022-08-21T05:39:58;14.2;86.1
74484;SHT31;62942;52.462;10.846;2022-08-21T05:41:07;14.3;85.7
74484;SHT31;62942;52.462;10.846;2022-08-21T05:42:07;14.4;85.5
74484;SHT31;62942;52.462;10.846;2022-08-21T05:43:07;14.4;85.3
74484;SHT31;62942;52.462;10.846;2022-08-21T05:44:17;14.5;85.1
74484;SHT31;62942;52.462;10.846;2022-08-21T05:45:28;14.6;84.9
74484;SHT31;62942;52.462;10.846;2022-08-21T05:46:37;14.7;84.8
74484;SHT31;62942;52.462;10.846;2022-08-21T05:47:37;14.8;84.7
74484;SHT31;62942;52.462;10.846;2022-08-21T05:48:47;14.9;84.5
74484;SHT31;62942;52.462;10.846;2022-08-21T05:49:57;14.9;84.3
74484;SHT31;62942;52.462;10.846;2022-08-21T05:51:08;15;84.1
74484;SHT31;62942;52.462;10.846;2022-08-21T05:52:20;15;83.9
74484;SHT31;62942;52.462;10.846;2022-08-21T05:53:18;15.1;83.7
74484;SHT31;62942;52.462;10.846;2022-08-21T05:54:17;15.1;83.7
74484;SHT31;62942;52.462;10.846;2022-08-21T05:55:27;15.2;83.5
74484;SHT31;62942;52.462;10.846;2022-08-21T05:56:37;15.3;83.4
74484;SHT31;62942;52.462;10.846;2022-08-21T05:57:47;15.4;83.3
74484;SHT31;62942;52.462;10.846;2022-08-21T05:58:47;15.5;83.1
74484;SHT31;62942;52.462;10.846;2022-08-21T05:59:57;15.6;82.9
74484;SHT31;62942;52.462;10.846;2022-08-21T06:00:57;15.7;82.7
74484;SHT31;62942;52.462;10.846;2022-08-21T06:02:07;15.8;82.5
74484;SHT31;62942;52.462;10.846;2022-08-21T06:03:10;15.9;82.3
74484;SHT31;62942;52.462;10.846;2022-08-21T06:04:17;16.1;82
74484;SHT31;62942;52.462;10.846;2022-08-21T06:05:27;16.3;81.6
74484;SHT31;62942;52.462;10.846;2022-08-21T06:06:27;16.4;81.1
74484;SHT31;62942;52.462;10.846;2022-08-21T06:07:27;16.5;80.6
74484;SHT31;62942;52.462;10.846;2022-08-21T06:08:37;16.7;80.1
74484;SHT31;62942;52.462;10.846;2022-08-21T06:09:37;16.9;79.6
74484;SHT31;62942;52.462;10.846;2022-08-21T06:10:47;17;79.3
74484;SHT31;62942;52.462;10.846;2022-08-21T06:11:57;17.2;78.8
74484;SHT31;62942;52.462;10.846;2022-08-21T06:13:07;17.4;78.1
74484;SHT31;62942;52.462;10.846;2022-08-21T06:14:07;17.6;77.6
74484;SHT31;62942;52.462;10.846;2022-08-21T06:15:17;17.8;76.8
74484;SHT31;62942;52.462;10.846;2022-08-21T06:16:27;17.9;76.3
74484;SHT31;62942;52.462;10.846;2022-08-21T06:17:37;18.1;75.6
74484;SHT31;62942;52.462;10.846;2022-08-21T06:18:47;18.3;75
74484;SHT31;62942;52.462;10.846;2022-08-21T06:19:50;18.5;74.4
74484;SHT31;62942;52.462;10.846;2022-08-21T06:20:57;18.6;73.8
74484;SHT31;62942;52.462;10.846;2022-08-21T06:22:07;18.8;73
74484;SHT31;62942;52.462;10.846;2022-08-21T06:23:17;18.9;72.8
74484;SHT31;62942;52.462;10.846;2022-08-21T06:24:27;19.1;72.3
74484;SHT31;62942;52.462;10.846;2022-08-21T06:25:27;19.2;71.8
74484;SHT31;62942;52.462;10.846;2022-08-21T06:26:37;19.3;71.6
74484;SHT31;62942;52.462;10.846;2022-08-21T06:27:47;19.5;71
74484;SHT31;62942;52.462;10.846;2022-08-21T06:28:47;19.7;70.2
74484;SHT31;62942;52.462;10.846;2022-08-21T06:29:57;19.9;69.3
74484;SHT31;62942;52.462;10.846;2022-08-21T06:31:11;20.1;69
74484;SHT31;62942;52.462;10.846;2022-08-21T06:32:17;20.3;68
74484;SHT31;62942;52.462;10.846;2022-08-21T06:33:27;20.4;66.6
74484;SHT31;62942;52.462;10.846;2022-08-21T06:34:37;20.6;65.4
74484;SHT31;62942;52.462;10.846;2022-08-21T06:35:47;20.7;65.3
74484;SHT31;62942;52.462;10.846;2022-08-21T06:36:57;20.9;64.6
74484;SHT31;62942;52.462;10.846;2022-08-21T06:37:58;21;63.9
74484;SHT31;62942;52.462;10.846;2022-08-21T06:39:07;21.1;63.8
74484;SHT31;62942;52.462;10.846;2022-08-21T06:40:17;21.3;63.5
74484;SHT31;62942;52.462;10.846;2022-08-21T06:41:27;21.5;62.8
74484;SHT31;62942;52.462;10.846;2022-08-21T06:42:37;21.7;61.5
74484;SHT31;62942;52.462;10.846;2022-08-21T06:43:47;21.7;61
74484;SHT31;62942;52.462;10.846;2022-08-21T06:44:47;21.9;60.7
74484;SHT31;62942;52.462;10.846;2022-08-21T06:45:57;22.1;59.7
74484;SHT31;62942;52.462;10.846;2022-08-21T06:47:07;22.2;58.6
74484;SHT31;62942;52.462;10.846;2022-08-21T06:48:17;22.4;57
74484;SHT31;62942;52.462;10.846;2022-08-21T06:49:17;22.5;57.1
74484;SHT31;62942;52.462;10.846;2022-08-21T06:50:17;22.6;56.6
74484;SHT31;62942;52.462;10.846;2022-08-21T06:51:17;22.7;57
74484;SHT31;62942;52.462;10.846;2022-08-21T06:52:17;22.9;56.5
74484;SHT31;62942;52.462;10.846;2022-08-21T06:53:27;23;56.4
74484;SHT31;62942;52.462;10.846;2022-08-21T06:54:27;23.2;56.1
74484;SHT31;62942;52.462;10.846;2022-08-21T06:55:27;23.4;55.4
74484;SHT31;62942;52.462;10.846;2022-08-21T06:56:27;23.5;54.6
74484;SHT31;62942;52.462;10.846;2022-08-21T06:57:37;23.6;53.7
74484;SHT31;62942;52.462;10.846;2022-08-21T06:58:37;23.7;53.2
74484;SHT31;62942;52.462;10.846;2022-08-21T06:59:47;23.7;52.1
74484;SHT31;62942;52.462;10.846;2022-08-21T07:00:48;23.8;52.5
74484;SHT31;62942;52.462;10.846;2022-08-21T07:01:57;23.8;52
74484;SHT31;62942;52.462;10.846;2022-08-21T07:02:57;23.8;50.7
74484;SHT31;62942;52.462;10.846;2022-08-21T07:04:07;23.8;51.4
74484;SHT31;62942;52.462;10.846;2022-08-21T07:05:17;23.8;51.5
74484;SHT31;62942;52.462;10.846;2022-08-21T07:06:17;23.9;51.1
74484;SHT31;62942;52.462;10.846;2022-08-21T07:07:27;24;51
74484;SHT31;62942;52.462;10.846;2022-08-21T07:08:27;24.1;51.3